Time;durP1;ratioP1;P1;durP2;ratioP2;P2;SDS_P1;SDS_P2;PMS_P1;PMS_P2;Temp;Humidity;BMP_temperature;BMP_pressure;BME280_temperature;BME280_humidity;BME280_pressure;Samples;Min_cycle;Max_cycle;Signal;HPM_P1;HPM_P2
2022/03/02 00:01:22;;;;;;;13.77;8.63;;;;;;;-3.59;86.93;100435.16;5079045;28;20597;-74
2022/03/02 00:03:56;;;;;;;15.10;8.90;;;;;;;-3.62;87.25;100431.94;5077149;28;20221;-73
2022/03/02 00:06:29;;;;;;;12.23;8.80;;;;;;;-3.57;87.75;100433.28;5076121;28;20224;-73
2022/03/02 00:08:57;;;;;;;12.57;8.43;;;;;;;-3.52;87.18;100435.56;5082602;28;20247;-73
2022/03/02 00:11:30;;;;;;;16.10;9.07;;;;;;;-3.53;86.60;100431.28;5074988;28;20261;-74
2022/03/02 00:14:00;;;;;;;13.67;8.80;;;;;;;-3.49;86.21;100430.09;5081568;28;20225;-74
2022/03/02 00:16:36;;;;;;;13.87;8.67;;;;;;;-3.45;84.32;100426.31;5081556;28;20228;-73
2022/03/02 00:19:04;;;;;;;14.40;9.03;;;;;;;-3.47;84.97;100422.97;5072895;28;20228;-73
2022/03/02 00:21:36;;;;;;;12.77;8.97;;;;;;;-3.33;85.16;100430.69;5083430;28;20271;-74
2022/03/02 00:24:08;;;;;;;14.10;8.43;;;;;;;-3.33;83.70;100428.06;5080400;28;20222;-79
2022/03/02 00:26:43;;;;;;;13.67;9.07;;;;;;;-3.28;83.50;100432.97;5061275;23;20239;-74
2022/03/02 00:29:15;;;;;;;13.07;8.50;;;;;;;-3.25;83.59;100430.94;5050027;28;20221;-74
2022/03/02 00:31:47;;;;;;;13.30;8.97;;;;;;;-3.33;83.61;100425.44;5050444;28;20257;-75
2022/03/02 00:34:18;;;;;;;13.47;8.43;;;;;;;-3.40;84.10;100424.19;5051110;28;20222;-74
2022/03/02 00:36:59;;;;;;;12.73;8.67;;;;;;;-3.40;84.43;100416.34;5058868;23;20298;-74
2022/03/02 00:39:52;;;;;;;14.50;8.93;;;;;;;-3.47;84.54;100411.66;5072008;23;20230;-76
2022/03/02 00:42:22;;;;;;;13.10;8.93;;;;;;;-3.49;85.30;100411.75;5047907;23;20301;-77
2022/03/02 00:44:53;;;;;;;14.83;9.30;;;;;;;-3.59;87.17;100418.59;5045558;28;20248;-74
2022/03/02 00:47:25;;;;;;;14.60;8.97;;;;;;;-3.57;87.31;100412.31;5042513;28;20277;-77
2022/03/02 00:49:54;;;;;;;16.63;8.90;;;;;;;-3.61;87.92;100410.03;5042563;28;20235;-77
2022/03/02 00:52:28;;;;;;;15.60;8.37;;;;;;;-3.64;87.78;100412.91;5042470;28;20280;-78
2022/03/02 00:55:04;;;;;;;12.00;8.17;;;;;;;-3.66;88.61;100412.16;5040268;23;20230;-73
2022/03/02 00:57:53;;;;;;;13.53;8.93;;;;;;;-3.71;88.57;100404.63;5007546;28;20261;-79
2022/03/02 01:00:20;;;;;;;14.37;8.93;;;;;;;-3.74;88.66;100407.47;5008394;28;20242;-73
2022/03/02 01:02:47;;;;;;;12.70;8.57;;;;;;;-3.73;88.25;100403.06;5009582;28;20261;-76
2022/03/02 01:05:17;;;;;;;13.50;8.50;;;;;;;-3.72;86.99;100402.94;5011881;28;20219;-75
2022/03/02 01:08:21;;;;;;;15.60;9.10;;;;;;;-3.76;87.77;100393.66;5066210;23;20622;-77
2022/03/02 01:10:49;;;;;;;13.67;8.70;;;;;;;-3.82;87.60;100393.25;5045807;28;20251;-77
2022/03/02 01:13:17;;;;;;;15.63;9.07;;;;;;;-3.82;88.67;100404.56;5049937;28;20280;-78
2022/03/02 01:15:46;;;;;;;13.97;8.77;;;;;;;-3.92;90.69;100400.94;5047388;28;20594;-79
2022/03/02 01:18:25;;;;;;;16.43;9.57;;;;;;;-3.93;92.59;100404.50;5045422;28;20240;-79
2022/03/02 01:20:52;;;;;;;14.33;10.00;;;;;;;-4.01;91.83;100404.19;5041965;28;20238;-77
2022/03/02 01:23:20;;;;;;;15.07;9.20;;;;;;;-4.07;92.61;100397.63;5046660;28;20290;-78
2022/03/02 01:25:49;;;;;;;16.07;9.90;;;;;;;-4.14;94.10;100398.13;5049752;28;20309;-77
2022/03/02 01:28:17;;;;;;;16.20;10.57;;;;;;;-4.19;95.86;100395.84;5031609;28;20242;-78
2022/03/02 01:30:51;;;;;;;20.53;14.00;;;;;;;-4.14;97.19;100398.13;5047684;28;20218;-80
2022/03/02 01:33:21;;;;;;;24.93;17.17;;;;;;;-4.05;93.48;100393.09;5048914;28;20230;-74
2022/03/02 01:35:49;;;;;;;18.93;12.97;;;;;;;-4.13;93.96;100391.97;5044422;28;20198;-76
2022/03/02 01:38:18;;;;;;;17.53;11.93;;;;;;;-4.28;97.19;100388.63;5046709;28;20230;-78
2022/03/02 01:40:48;;;;;;;17.97;12.20;;;;;;;-4.37;99.45;100380.59;5041168;28;20233;-77
2022/03/02 01:43:18;;;;;;;17.77;11.70;;;;;;;-4.40;100.00;100391.28;5047213;28;20251;-79
2022/03/02 01:45:45;;;;;;;13.63;9.97;;;;;;;-4.45;100.00;100389.00;5037360;28;20230;-75
2022/03/02 01:48:14;;;;;;;15.57;10.17;;;;;;;-4.49;100.00;100380.53;5045857;28;20249;-76
2022/03/02 01:50:44;;;;;;;17.63;10.00;;;;;;;-4.53;100.00;100379.06;5047154;28;20202;-75
2022/03/02 01:53:17;;;;;;;15.37;10.00;;;;;;;-4.58;100.00;100372.47;5046357;28;20289;-81
2022/03/02 01:56:03;;;;;;;14.87;9.83;;;;;;;-4.46;100.00;100375.06;5048020;28;20256;-73
2022/03/02 01:58:54;;;;;;;15.07;9.60;;;;;;;-4.53;100.00;100373.00;5046884;28;20244;-76
2022/03/02 02:01:39;;;;;;;14.83;9.40;;;;;;;-4.52;100.00;100366.78;5042721;28;20265;-77
2022/03/02 02:04:33;;;;;;;14.07;9.37;;;;;;;-4.55;100.00;100365.25;5045471;28;20237;-79
2022/03/02 02:07:00;;;;;;;13.60;9.77;;;;;;;-4.55;100.00;100367.03;5051453;28;20237;-77
2022/03/02 02:09:31;;;;;;;16.53;9.77;;;;;;;-4.60;100.00;100366.50;5060938;23;20239;-76
2022/03/02 02:12:12;;;;;;;13.73;9.23;;;;;;;-4.65;100.00;100355.50;5070264;28;20629;-78
2022/03/02 02:14:47;;;;;;;15.50;9.47;;;;;;;-4.67;100.00;100362.66;5070235;28;20221;-76
2022/03/02 02:17:29;;;;;;;13.27;9.20;;;;;;;-4.69;100.00;100361.91;5074823;22;20233;-74
2022/03/02 02:19:57;;;;;;;13.57;9.27;;;;;;;-4.69;100.00;100354.06;5053035;28;20256;-77
2022/03/02 02:22:24;;;;;;;15.17;10.10;;;;;;;-4.76;100.00;100358.06;5050047;28;20241;-79
2022/03/02 02:24:52;;;;;;;15.83;10.33;;;;;;;-4.81;100.00;100347.06;5075620;23;20244;-76
2022/03/02 02:27:19;;;;;;;13.43;9.27;;;;;;;-4.79;100.00;100347.78;5042449;28;20248;-77
2022/03/02 02:30:08;;;;;;;15.47;9.63;;;;;;;-4.86;100.00;100349.16;5069308;28;20237;-77
2022/03/02 02:33:01;;;;;;;14.07;9.03;;;;;;;-4.93;100.00;100346.94;5079218;22;20228;-76
2022/03/02 02:35:32;;;;;;;14.70;9.80;;;;;;;-4.92;100.00;100340.78;5055320;28;20241;-81
2022/03/02 02:38:00;;;;;;;16.53;10.07;;;;;;;-4.94;100.00;100344.44;5053963;28;20234;-80
2022/03/02 02:40:29;;;;;;;14.43;9.57;;;;;;;-4.99;100.00;100342.13;5053514;28;20615;-79
2022/03/02 02:42:59;;;;;;;16.03;10.13;;;;;;;-5.00;100.00;100340.47;5069726;23;20245;-82
2022/03/02 02:45:44;;;;;;;17.00;10.10;;;;;;;-5.04;100.00;100338.97;5054089;28;20232;-82
2022/03/02 02:48:32;;;;;;;16.63;9.67;;;;;;;-4.99;100.00;100338.66;5053714;28;20261;-80
2022/03/02 02:51:40;;;;;;;17.13;9.73;;;;;;;-5.04;100.00;100328.53;4995054;28;20215;-85
2022/03/02 02:54:15;;;;;;;14.23;9.70;;;;;;;-5.08;100.00;100324.47;4995767;28;20243;-78
2022/03/02 02:56:57;;;;;;;14.80;9.43;;;;;;;-5.12;100.00;100317.78;5001741;23;20251;31
2022/03/02 02:59:40;;;;;;;15.93;9.67;;;;;;;-5.16;100.00;100321.53;4971715;28;20244;-77
2022/03/02 03:02:08;;;;;;;16.53;10.07;;;;;;;-5.13;100.00;100315.28;4961278;28;20252;-75
2022/03/02 03:04:37;;;;;;;15.60;9.77;;;;;;;-5.17;100.00;100322.47;4972015;28;20232;-76
2022/03/02 03:07:04;;;;;;;15.33;9.87;;;;;;;-5.20;100.00;100317.47;4957828;28;20228;-76
2022/03/02 03:09:35;;;;;;;14.20;9.13;;;;;;;-5.18;100.00;100315.59;4971913;28;20244;-74
2022/03/02 03:12:15;;;;;;;16.43;9.63;;;;;;;-5.25;100.00;100313.47;5023012;23;20509;-74
2022/03/02 03:15:14;;;;;;;13.20;8.90;;;;;;;-5.26;100.00;100315.25;5049962;28;20229;-73
2022/03/02 03:17:46;;;;;;;14.10;9.63;;;;;;;-5.19;100.00;100321.75;5032630;28;20245;-75
2022/03/02 03:20:20;;;;;;;13.60;9.20;;;;;;;-5.22;100.00;100311.47;5031353;28;20257;-74
2022/03/02 03:22:54;;;;;;;12.00;8.87;;;;;;;-5.32;100.00;100313.88;5046747;28;20281;-73
2022/03/02 03:25:26;;;;;;;16.50;9.77;;;;;;;-5.37;100.00;100309.94;5032777;28;20246;-78
2022/03/02 03:27:57;;;;;;;16.50;9.83;;;;;;;-5.42;100.00;100315.47;5055694;28;20225;-74
2022/03/02 03:30:35;;;;;;;14.57;10.27;;;;;;;-5.45;100.00;100307.81;5038003;23;20218;-75
2022/03/02 03:33:04;;;;;;;15.23;10.70;;;;;;;-5.48;100.00;100308.03;5037368;28;20226;-71
2022/03/02 03:35:40;;;;;;;16.10;10.10;;;;;;;-5.54;100.00;100313.63;5031716;28;20229;-73
2022/03/02 03:38:10;;;;;;;15.13;10.17;;;;;;;-5.54;100.00;100310.19;5041643;28;20229;-73
2022/03/02 03:40:42;;;;;;;17.67;10.23;;;;;;;-5.56;100.00;100305.09;5038833;28;20233;-74
2022/03/02 03:43:16;;;;;;;13.93;9.90;;;;;;;-5.58;100.00;100298.28;5043108;23;20283;-73
2022/03/02 03:46:08;;;;;;;17.03;10.40;;;;;;;-5.60;100.00;100302.78;5054968;22;20242;-73
2022/03/02 03:48:44;;;;;;;15.43;9.83;;;;;;;-5.62;100.00;100305.47;5070564;28;20221;-74
2022/03/02 03:51:37;;;;;;;15.57;9.73;;;;;;;-5.61;100.00;100301.94;5070740;28;20240;-72
2022/03/02 03:54:12;;;;;;;14.27;9.77;;;;;;;-5.67;100.00;100298.88;5065014;22;20293;-74
2022/03/02 03:56:51;;;;;;;14.63;9.30;;;;;;;-5.71;100.00;100308.69;5069478;22;20209;-74
2022/03/02 03:59:23;;;;;;;13.43;9.57;;;;;;;-5.74;100.00;100301.06;5028109;28;20228;-77
2022/03/02 04:01:50;;;;;;;17.30;10.23;;;;;;;-5.74;100.00;100295.84;5034082;28;20230;-73
2022/03/02 04:04:19;;;;;;;17.20;10.70;;;;;;;-5.70;100.00;100296.47;5031900;28;20219;-76
2022/03/02 04:06:50;;;;;;;15.93;10.27;;;;;;;-5.74;100.00;100295.00;5071154;22;20228;-74
2022/03/02 04:09:21;;;;;;;15.57;9.97;;;;;;;-5.81;100.00;100302.41;5068055;23;20669;-73
2022/03/02 04:11:49;;;;;;;14.73;9.70;;;;;;;-5.84;100.00;100297.38;5052527;28;20236;-74
2022/03/02 04:14:15;;;;;;;16.20;10.13;;;;;;;-5.83;100.00;100304.25;5044919;28;20242;-73
2022/03/02 04:16:42;;;;;;;13.67;9.33;;;;;;;-5.77;100.00;100304.69;5043383;28;20226;-81
2022/03/02 04:19:15;;;;;;;16.73;9.97;;;;;;;-5.71;100.00;100300.03;5043663;28;20233;-76
2022/03/02 04:21:42;;;;;;;14.60;9.47;;;;;;;-5.69;100.00;100301.56;5038353;28;20232;-75
2022/03/02 04:24:09;;;;;;;15.40;9.73;;;;;;;-5.69;100.00;100298.16;5043669;28;20222;-78
2022/03/02 04:26:37;;;;;;;16.10;10.50;;;;;;;-5.71;100.00;100295.63;5042063;28;20288;-74
2022/03/02 04:29:04;;;;;;;16.17;9.97;;;;;;;-5.71;100.00;100295.63;5043246;28;20226;-76
2022/03/02 04:31:31;;;;;;;16.37;10.63;;;;;;;-5.64;100.00;100299.50;5042212;28;20656;-78
2022/03/02 04:33:58;;;;;;;14.97;9.83;;;;;;;-5.59;100.00;100299.19;5040204;28;20226;-79
2022/03/02 04:36:24;;;;;;;15.60;10.73;;;;;;;-5.60;100.00;100294.94;5042027;28;20241;-77
2022/03/02 04:38:51;;;;;;;16.13;10.50;;;;;;;-5.60;100.00;100297.56;5043868;28;20264;-75
2022/03/02 04:41:18;;;;;;;14.97;10.60;;;;;;;-5.60;100.00;100290.53;5042699;28;20238;-74
2022/03/02 04:43:47;;;;;;;15.73;11.27;;;;;;;-5.62;100.00;100289.81;5043227;28;20222;-75
2022/03/02 04:46:17;;;;;;;16.37;10.80;;;;;;;-5.59;100.00;100292.22;5039886;28;20234;-77
2022/03/02 04:48:44;;;;;;;16.20;10.73;;;;;;;-5.52;100.00;100290.03;5034707;28;20232;-74
2022/03/02 04:51:11;;;;;;;17.37;10.23;;;;;;;-5.53;100.00;100286.59;5040959;28;20210;-74
2022/03/02 04:53:37;;;;;;;14.50;10.13;;;;;;;-5.51;100.00;100292.56;5040672;28;20312;-75
2022/03/02 04:56:05;;;;;;;15.10;10.33;;;;;;;-5.52;100.00;100287.44;5041367;28;20324;-80
2022/03/02 04:58:32;;;;;;;15.50;10.37;;;;;;;-5.56;100.00;100278.97;5042524;28;20242;-77
2022/03/02 05:00:58;;;;;;;14.73;9.20;;;;;;;-5.56;100.00;100289.41;5042758;28;20287;-75
2022/03/02 05:03:27;;;;;;;15.13;10.00;;;;;;;-5.56;100.00;100285.97;5041540;28;20237;-78
2022/03/02 05:05:55;;;;;;;16.50;9.87;;;;;;;-5.48;100.00;100287.13;5041778;28;20260;-79
2022/03/02 05:08:22;;;;;;;15.27;10.13;;;;;;;-5.51;100.00;100294.34;5042774;28;20225;-80
2022/03/02 05:10:48;;;;;;;15.10;9.83;;;;;;;-5.45;100.00;100283.47;5040157;28;20230;-74
2022/03/02 05:13:15;;;;;;;18.10;9.87;;;;;;;-5.46;100.00;100287.03;5039163;28;20535;-83
2022/03/02 05:15:42;;;;;;;18.33;10.53;;;;;;;-5.39;100.00;100285.66;5053717;23;20226;-77
2022/03/02 05:18:09;;;;;;;17.33;9.63;;;;;;;-5.41;100.00;100287.53;5053239;28;20645;-73
2022/03/02 05:20:35;;;;;;;17.13;11.27;;;;;;;-5.47;100.00;100290.56;5043243;28;20225;-75
2022/03/02 05:23:02;;;;;;;16.30;10.60;;;;;;;-5.38;100.00;100287.34;5055130;28;20230;-73
2022/03/02 05:25:29;;;;;;;16.73;10.03;;;;;;;-5.35;100.00;100280.13;5045964;28;20679;-76
2022/03/02 05:27:56;;;;;;;16.17;10.37;;;;;;;-5.42;100.00;100286.72;5052350;28;20229;-74
2022/03/02 05:30:23;;;;;;;15.27;10.03;;;;;;;-5.46;100.00;100285.22;5050995;28;20229;-75
2022/03/02 05:32:50;;;;;;;16.60;10.43;;;;;;;-5.29;100.00;100284.13;5051697;28;20249;-78
2022/03/02 05:35:16;;;;;;;16.07;10.70;;;;;;;-5.28;100.00;100282.34;5049115;28;20324;-74
2022/03/02 05:37:43;;;;;;;17.93;10.07;;;;;;;-5.33;100.00;100285.28;5048770;28;20225;-74
2022/03/02 05:40:14;;;;;;;18.77;10.77;;;;;;;-5.32;100.00;100291.34;5049004;28;20218;-79
2022/03/02 05:42:41;;;;;;;17.83;10.03;;;;;;;-5.30;100.00;100286.81;5051762;28;20229;-79
2022/03/02 05:45:09;;;;;;;15.30;10.77;;;;;;;-5.28;100.00;100285.81;5052022;28;20263;-76
2022/03/02 05:47:37;;;;;;;17.47;10.73;;;;;;;-5.24;100.00;100283.81;5046153;28;20288;-76
2022/03/02 05:50:06;;;;;;;15.50;10.27;;;;;;;-5.16;100.00;100279.72;5046165;28;20232;-73
2022/03/02 05:52:33;;;;;;;18.57;10.40;;;;;;;-5.00;100.00;100285.59;5049560;28;20221;-72
2022/03/02 05:55:00;;;;;;;15.83;10.47;;;;;;;-4.93;100.00;100288.59;5051567;28;20257;-76
2022/03/02 05:57:27;;;;;;;17.07;10.50;;;;;;;-4.95;100.00;100285.28;5049310;28;20252;-77
2022/03/02 05:59:54;;;;;;;15.83;10.40;;;;;;;-4.90;100.00;100289.22;5043700;28;20505;-73
2022/03/02 06:02:20;;;;;;;18.27;10.80;;;;;;;-4.79;100.00;100290.25;5049149;28;20238;-77
2022/03/02 06:04:48;;;;;;;20.63;10.90;;;;;;;-4.65;100.00;100284.91;5055992;28;20298;-79
2022/03/02 06:07:16;;;;;;;14.50;10.43;;;;;;;-4.57;100.00;100282.59;5054348;28;20492;-85
2022/03/02 06:09:44;;;;;;;20.07;10.87;;;;;;;-4.47;100.00;100284.47;5049988;28;20304;-84
2022/03/02 06:12:12;;;;;;;18.20;11.17;;;;;;;-4.38;100.00;100279.50;5051535;28;20308;-75
2022/03/02 06:14:39;;;;;;;15.43;9.47;;;;;;;-4.25;100.00;100281.16;5042499;28;20283;-74
2022/03/02 06:17:06;;;;;;;14.80;10.43;;;;;;;-4.06;100.00;100280.69;5051135;28;20241;-72
2022/03/02 06:19:33;;;;;;;14.73;9.93;;;;;;;-3.93;100.00;100284.06;5055945;28;20235;-73
2022/03/02 06:22:02;;;;;;;17.17;10.77;;;;;;;-3.79;100.00;100283.06;5049372;28;20232;-75
2022/03/02 06:24:30;;;;;;;17.10;10.87;;;;;;;-3.64;100.00;100281.94;5061297;28;20225;-83
2022/03/02 06:26:58;;;;;;;19.27;10.70;;;;;;;-3.49;100.00;100282.56;5054585;28;20258;-83
2022/03/02 06:29:26;;;;;;;16.23;10.53;;;;;;;-3.33;100.00;100285.72;5052779;28;20213;-73
2022/03/02 06:31:52;;;;;;;16.40;10.67;;;;;;;-3.17;100.00;100289.66;5053008;28;20222;-82
2022/03/02 06:34:19;;;;;;;15.20;10.73;;;;;;;-3.01;100.00;100288.50;5051521;28;20236;-79
2022/03/02 06:36:49;;;;;;;15.30;9.50;;;;;;;-2.72;100.00;100290.56;5056390;28;20312;-83
2022/03/02 06:39:21;;;;;;;16.93;10.27;;;;;;;-2.64;100.00;100282.09;5055733;28;20213;-76
2022/03/02 06:42:12;;;;;;;14.10;9.70;;;;;;;-2.44;100.00;100288.41;5056456;28;20222;-83
2022/03/02 06:44:57;;;;;;;16.50;10.53;;;;;;;-2.18;100.00;100291.56;5055476;28;20271;-81
2022/03/02 06:47:27;;;;;;;17.63;9.70;;;;;;;-1.89;98.26;100287.44;5055578;28;20229;-84
2022/03/02 06:50:10;;;;;;;15.70;9.77;;;;;;;-1.75;96.04;100281.06;5048423;28;20274;-80
2022/03/02 06:52:43;;;;;;;16.63;10.60;;;;;;;-1.60;93.84;100270.16;5053603;28;20230;-74
2022/03/02 06:55:19;;;;;;;17.07;11.07;;;;;;;-1.37;90.68;100270.84;5059959;28;20225;-85
2022/03/02 06:57:52;;;;;;;17.07;11.03;;;;;;;-1.16;86.94;100271.69;5052567;28;20300;-85
2022/03/02 07:00:23;;;;;;;16.60;10.07;;;;;;;-1.01;85.00;100264.28;5050904;28;20243;-78
2022/03/02 07:03:09;;;;;;;13.70;9.67;;;;;;;-0.81;82.92;100275.75;5050138;28;20221;-80
2022/03/02 07:05:39;;;;;;;14.47;9.87;;;;;;;-0.70;82.98;100275.66;5053962;28;20643;-79
2022/03/02 07:08:08;;;;;;;14.73;10.20;;;;;;;-0.62;81.81;100274.03;5060407;28;20229;-77
2022/03/02 07:10:36;;;;;;;17.57;10.30;;;;;;;-0.44;79.17;100276.88;5060174;28;20232;-81
2022/03/02 07:13:09;;;;;;;15.23;9.67;;;;;;;-0.24;76.42;100269.88;5048476;28;20265;-80
2022/03/02 07:15:36;;;;;;;13.47;9.23;;;;;;;-0.15;76.40;100269.88;5090647;28;20611;-83
2022/03/02 07:18:04;;;;;;;13.77;9.37;;;;;;;0.00;72.75;100254.53;5081356;28;20240;-80
2022/03/02 07:20:30;;;;;;;13.03;8.70;;;;;;;0.17;70.22;100259.09;5103393;28;20250;-82
2022/03/02 07:22:58;;;;;;;13.47;9.00;;;;;;;0.33;69.98;100263.81;5104365;28;20239;-76
2022/03/02 07:25:29;;;;;;;13.70;8.93;;;;;;;0.52;67.21;100262.97;5103897;28;20227;-79
2022/03/02 07:27:58;;;;;;;12.73;8.80;;;;;;;0.78;65.36;100262.25;5103066;28;20231;-80
2022/03/02 07:30:26;;;;;;;13.07;8.97;;;;;;;0.91;62.43;100261.94;5081099;28;20711;-79
2022/03/02 07:33:04;;;;;;;13.67;8.73;;;;;;;0.92;63.34;100260.16;5097974;28;20249;-80
2022/03/02 07:35:36;;;;;;;13.07;8.83;;;;;;;1.08;60.91;100253.28;5103605;28;20257;-73
2022/03/02 07:38:06;;;;;;;12.40;9.10;;;;;;;1.14;60.07;100250.06;5106731;28;20228;-84
2022/03/02 07:40:34;;;;;;;12.47;8.53;;;;;;;1.33;59.72;100247.38;5096719;28;20274;-81
2022/03/02 07:43:01;;;;;;;11.57;8.70;;;;;;;1.54;57.72;100260.31;5098364;28;20300;-83
2022/03/02 07:45:28;;;;;;;12.53;8.57;;;;;;;1.67;57.07;100257.34;5069965;28;20227;-74
2022/03/02 07:47:56;;;;;;;13.97;8.67;;;;;;;1.83;57.28;100251.41;5094727;28;20311;-74
2022/03/02 07:50:24;;;;;;;15.63;8.83;;;;;;;1.97;57.72;100253.53;5061948;28;20237;-75
2022/03/02 07:52:51;;;;;;;12.47;8.33;;;;;;;2.09;58.23;100245.25;5080506;28;20235;-73
2022/03/02 07:55:19;;;;;;;13.27;9.03;;;;;;;2.23;55.99;100243.91;5076706;28;20269;-73
2022/03/02 07:57:52;;;;;;;15.17;9.00;;;;;;;2.42;55.17;100240.28;5091330;28;20213;-75
2022/03/02 08:00:19;;;;;;;11.60;7.87;;;;;;;2.61;53.32;100242.75;5076878;28;20715;-74
2022/03/02 08:02:47;;;;;;;10.23;6.37;;;;;;;2.92;44.73;100228.06;5076446;28;20227;-72
2022/03/02 08:05:14;;;;;;;9.83;6.37;;;;;;;2.97;44.02;100230.25;5060078;28;20315;-74
2022/03/02 08:07:42;;;;;;;11.43;6.40;;;;;;;3.27;43.13;100231.56;5097516;28;20598;-75
2022/03/02 08:10:10;;;;;;;11.97;6.80;;;;;;;3.32;44.09;100235.41;5079763;28;20228;-74
2022/03/02 08:12:36;;;;;;;9.87;6.40;;;;;;;3.40;43.71;100229.31;5076973;28;20219;-76
2022/03/02 08:15:05;;;;;;;11.10;7.00;;;;;;;3.38;42.54;100232.13;5097623;28;20220;-76
2022/03/02 08:17:32;;;;;;;10.00;6.50;;;;;;;3.44;41.84;100228.84;5077258;28;20232;-74
2022/03/02 08:19:59;;;;;;;10.17;6.13;;;;;;;3.58;41.22;100226.56;5097820;28;20520;-74
2022/03/02 08:22:30;;;;;;;8.80;6.73;;;;;;;3.51;40.25;100236.97;5061175;28;20252;-73
2022/03/02 08:25:12;;;;;;;10.77;6.70;;;;;;;3.54;40.36;100229.56;5063091;28;20228;-73
2022/03/02 08:27:41;;;;;;;10.10;6.40;;;;;;;3.69;40.39;100219.13;5075514;28;20692;-75
2022/03/02 08:30:09;;;;;;;13.07;6.97;;;;;;;3.76;41.02;100212.22;5072019;28;20338;-74
2022/03/02 08:32:41;;;;;;;10.03;6.77;;;;;;;3.81;40.57;100211.75;5063002;28;20223;-75
2022/03/02 08:35:08;;;;;;;10.63;6.83;;;;;;;3.85;40.19;100202.47;5079847;28;20228;-73
2022/03/02 08:37:35;;;;;;;9.40;6.23;;;;;;;3.89;39.44;100201.97;5079683;28;21843;-73
2022/03/02 08:40:05;;;;;;;11.97;6.57;;;;;;;3.93;39.28;100197.16;5072980;28;20310;-73
2022/03/02 08:42:32;;;;;;;10.43;6.43;;;;;;;4.07;39.07;100199.19;5097081;28;20275;-75
2022/03/02 08:45:00;;;;;;;13.23;6.97;;;;;;;3.94;39.01;100186.41;5078838;28;20330;-74
2022/03/02 08:47:26;;;;;;;9.23;6.67;;;;;;;4.12;38.87;100188.06;5078040;28;20242;-74
2022/03/02 08:49:56;;;;;;;9.77;7.20;;;;;;;4.03;38.95;100189.91;5100405;28;20232;-73
2022/03/02 08:52:28;;;;;;;11.37;7.43;;;;;;;3.97;39.55;100182.59;5098117;28;20571;-73
2022/03/02 08:54:56;;;;;;;9.33;6.30;;;;;;;4.21;38.77;100187.09;5081083;28;20248;-73
2022/03/02 08:57:23;;;;;;;14.23;7.87;;;;;;;4.11;38.76;100186.41;5081335;28;20631;-72
2022/03/02 08:59:52;;;;;;;11.60;7.33;;;;;;;4.09;38.92;100169.84;5097692;28;20244;-73
2022/03/02 09:02:22;;;;;;;11.30;6.97;;;;;;;3.94;39.46;100167.84;5088509;28;20240;-73
2022/03/02 09:04:51;;;;;;;12.27;7.00;;;;;;;4.11;38.73;100173.16;5097591;28;20230;-80
2022/03/02 09:07:18;;;;;;;14.07;8.37;;;;;;;4.09;38.84;100169.84;5081380;28;20244;-75
2022/03/02 09:09:45;;;;;;;10.73;7.13;;;;;;;3.95;38.64;100158.09;5098533;28;20226;-73
2022/03/02 09:12:15;;;;;;;9.70;6.93;;;;;;;4.11;38.60;100158.06;5097810;28;20248;-72
2022/03/02 09:14:42;;;;;;;10.50;7.23;;;;;;;4.19;38.46;100152.78;5090073;28;20232;-74
2022/03/02 09:17:09;;;;;;;12.27;7.33;;;;;;;4.18;37.15;100152.94;5098489;28;20231;-73
2022/03/02 09:19:37;;;;;;;10.80;7.03;;;;;;;4.27;37.69;100162.56;5090770;28;20224;-73
2022/03/02 09:22:04;;;;;;;9.57;6.50;;;;;;;4.35;38.25;100150.13;5086900;28;20319;-73
2022/03/02 09:24:31;;;;;;;10.23;7.07;;;;;;;4.39;37.57;100147.97;5080621;28;20289;-72
2022/03/02 09:26:58;;;;;;;10.97;7.30;;;;;;;4.30;37.61;100152.44;5080321;28;20243;-73
2022/03/02 09:29:30;;;;;;;12.23;7.10;;;;;;;4.33;37.75;100144.16;5088967;28;20573;-77
2022/03/02 09:31:59;;;;;;;12.73;7.70;;;;;;;4.43;37.31;100142.16;5099587;28;20270;-73
2022/03/02 09:34:29;;;;;;;9.47;6.90;;;;;;;4.54;37.17;100142.81;5079485;28;20227;-74
2022/03/02 09:36:57;;;;;;;11.97;7.27;;;;;;;4.60;37.03;100134.19;5074333;28;20228;-74
2022/03/02 09:39:24;;;;;;;9.60;7.10;;;;;;;4.64;37.63;100128.34;5063510;28;20669;-73
2022/03/02 09:42:27;;;;;;;9.67;7.10;;;;;;;4.69;37.20;100130.50;5097861;28;20314;-75
2022/03/02 09:45:03;;;;;;;10.07;7.07;;;;;;;4.38;37.42;100117.13;5071906;28;20299;-73
2022/03/02 09:47:53;;;;;;;9.70;6.97;;;;;;;4.51;37.22;100121.91;5097411;28;20258;-74
2022/03/02 09:50:26;;;;;;;10.53;6.63;;;;;;;4.73;37.79;100126.50;5070840;28;20220;-73
2022/03/02 09:52:54;;;;;;;11.00;7.90;;;;;;;4.82;37.48;100128.13;5078498;28;20228;-73
2022/03/02 09:55:23;;;;;;;11.43;8.10;;;;;;;4.87;37.69;100123.16;5079539;28;20220;-75
2022/03/02 09:57:58;;;;;;;9.77;7.03;;;;;;;4.84;38.03;100118.19;5074079;28;20231;-74
2022/03/02 10:00:26;;;;;;;11.60;8.03;;;;;;;4.87;37.64;100123.16;5071812;28;20224;-76
2022/03/02 10:03:00;;;;;;;12.47;8.47;;;;;;;4.97;37.97;100122.94;5079327;28;20281;-77
2022/03/02 10:05:32;;;;;;;12.67;8.13;;;;;;;5.11;37.70;100108.97;5075804;28;20310;-81
2022/03/02 10:08:04;;;;;;;10.87;8.73;;;;;;;5.26;36.77;100105.41;5079469;28;20291;-78
2022/03/02 10:10:36;;;;;;;10.67;8.10;;;;;;;5.15;37.61;100115.56;5089917;28;20220;-79
2022/03/02 10:13:09;;;;;;;14.07;9.70;;;;;;;5.11;37.93;100120.41;5093004;28;20527;-77
2022/03/02 10:15:36;;;;;;;12.40;8.73;;;;;;;5.01;37.16;100106.50;5100072;28;20223;-78
2022/03/02 10:18:05;;;;;;;14.33;10.43;;;;;;;4.98;37.81;100101.56;5093476;28;20269;-73
2022/03/02 10:20:35;;;;;;;12.87;9.43;;;;;;;5.08;37.95;100102.19;5094047;28;20311;-77
2022/03/02 10:23:30;;;;;;;14.13;11.30;;;;;;;5.18;37.06;100104.63;5078250;28;20289;-76
2022/03/02 10:26:16;;;;;;;13.93;10.93;;;;;;;5.15;37.23;100095.16;5093155;28;20324;-75
2022/03/02 10:28:45;;;;;;;14.43;10.40;;;;;;;5.23;36.82;100084.47;5090445;28;20233;-72
2022/03/02 10:31:28;;;;;;;14.27;9.40;;;;;;;5.24;37.70;100082.66;5076727;28;20226;-77
2022/03/02 10:33:57;;;;;;;17.23;12.70;;;;;;;5.50;36.39;100090.31;5077471;28;20277;-74
2022/03/02 10:36:29;;;;;;;17.90;13.10;;;;;;;5.47;35.65;100077.38;5077000;28;20314;-73
2022/03/02 10:39:04;;;;;;;15.37;11.97;;;;;;;5.35;35.44;100078.78;5055647;28;20506;-77
2022/03/02 10:41:35;;;;;;;14.90;10.53;;;;;;;5.35;36.53;100070.81;5089438;28;20235;-75
2022/03/02 10:44:03;;;;;;;12.87;9.53;;;;;;;5.46;36.63;100076.53;5087947;28;20315;-77
2022/03/02 10:46:30;;;;;;;13.43;9.30;;;;;;;5.44;36.00;100072.41;5089426;28;20733;-77
2022/03/02 10:49:06;;;;;;;14.00;10.17;;;;;;;5.51;35.54;100068.88;5077285;28;20269;-77
2022/03/02 10:51:34;;;;;;;18.57;13.43;;;;;;;5.54;35.75;100063.22;5057781;28;20232;-78
2022/03/02 10:54:04;;;;;;;18.03;13.33;;;;;;;5.65;35.96;100065.44;5094192;28;20514;-74
2022/03/02 10:56:41;;;;;;;16.43;12.33;;;;;;;5.78;36.45;100058.72;5076354;28;20589;-77
2022/03/02 10:59:11;;;;;;;13.57;9.97;;;;;;;5.82;35.61;100057.34;5077293;28;20219;-76
2022/03/02 11:01:37;;;;;;;14.30;9.50;;;;;;;5.86;35.27;100054.16;5060995;28;20228;-77
2022/03/02 11:04:08;;;;;;;13.27;9.40;;;;;;;5.92;35.37;100053.50;5093749;28;20235;-75
2022/03/02 11:06:37;;;;;;;16.27;9.90;;;;;;;6.04;35.16;100053.88;5077072;28;20228;-76
2022/03/02 11:09:05;;;;;;;12.93;9.17;;;;;;;6.10;34.64;100047.84;5076972;28;20316;-77
2022/03/02 11:11:38;;;;;;;10.73;8.97;;;;;;;5.94;34.69;100053.28;5077477;28;20232;-74
2022/03/02 11:14:08;;;;;;;12.67;8.50;;;;;;;5.71;34.28;100040.81;5076594;28;20639;-74
2022/03/02 11:16:35;;;;;;;13.60;9.27;;;;;;;5.96;35.02;100030.84;5094605;28;20689;-75
2022/03/02 11:19:14;;;;;;;13.10;9.00;;;;;;;6.15;33.90;100027.66;5077188;28;20223;-77
2022/03/02 11:21:43;;;;;;;12.73;9.50;;;;;;;6.27;34.04;100021.88;5076801;28;20327;-76
2022/03/02 11:24:16;;;;;;;10.53;8.27;;;;;;;6.30;33.44;100018.88;5071134;28;20307;-74
2022/03/02 11:26:48;;;;;;;12.47;8.77;;;;;;;6.27;33.88;100021.88;5076898;28;20232;-76
2022/03/02 11:29:17;;;;;;;11.17;7.87;;;;;;;6.20;34.07;100016.47;5087114;28;20243;-77
2022/03/02 11:31:50;;;;;;;9.77;7.47;;;;;;;6.11;34.07;100004.28;5077198;28;20520;-76
2022/03/02 11:34:29;;;;;;;13.50;7.93;;;;;;;6.18;33.54;99998.03;5071657;28;20323;-75